sensor_id;sensor_type;location;lat;lon;timestamp;pressure;altitude;pressure_sealevel;temperature;humidity
79136;BME280;68533;51.090;17.216;2023-04-30T00:00:06;100330.78;;;8.77;78.20
79136;BME280;68533;51.090;17.216;2023-04-30T00:07:50;100338.75;;;8.73;78.20
79136;BME280;68533;51.090;17.216;2023-04-30T00:10:37;100342.56;;;8.67;79.54
79136;BME280;68533;51.090;17.216;2023-04-30T00:14:07;100353.53;;;8.67;79.22
79136;BME280;68533;51.090;17.216;2023-04-30T00:25:08;100352.97;;;8.60;79.75
79136;BME280;68533;51.090;17.216;2023-04-30T00:28:11;100359.59;;;8.64;79.07
79136;BME280;68533;51.090;17.216;2023-04-30T00:31:39;100352.44;;;8.63;79.00
79136;BME280;68533;51.090;17.216;2023-04-30T00:34:47;100355.47;;;8.62;79.19
79136;BME280;68533;51.090;17.216;2023-04-30T00:59:02;100386.97;;;8.54;79.49
79136;BME280;68533;51.090;17.216;2023-04-30T01:01:46;100391.31;;;8.45;79.59
79136;BME280;68533;51.090;17.216;2023-04-30T01:05:18;100391.88;;;8.47;78.90
79136;BME280;68533;51.090;17.216;2023-04-30T01:08:11;100391.31;;;8.40;79.62
79136;BME280;68533;51.090;17.216;2023-04-30T01:18:43;100391.31;;;8.35;78.88
79136;BME280;68533;51.090;17.216;2023-04-30T01:28:26;100394.00;;;8.25;79.81
79136;BME280;68533;51.090;17.216;2023-04-30T01:31:33;100397.28;;;8.27;78.58
79136;BME280;68533;51.090;17.216;2023-04-30T01:34:52;100400.31;;;8.25;78.65
79136;BME280;68533;51.090;17.216;2023-04-30T01:45:03;100410.94;;;8.06;79.73
79136;BME280;68533;51.090;17.216;2023-04-30T01:47:51;100411.47;;;8.08;79.21
79136;BME280;68533;51.090;17.216;2023-04-30T01:50:51;100410.63;;;7.98;80.17
79136;BME280;68533;51.090;17.216;2023-04-30T01:53:37;100409.72;;;7.87;80.55
79136;BME280;68533;51.090;17.216;2023-04-30T01:56:27;100413.53;;;7.81;80.59
79136;BME280;68533;51.090;17.216;2023-04-30T01:59:37;100412.38;;;7.67;81.08
79136;BME280;68533;51.090;17.216;2023-04-30T02:02:05;100421.06;;;7.54;81.82
79136;BME280;68533;51.090;17.216;2023-04-30T02:04:36;100422.13;;;7.48;81.59
79136;BME280;68533;51.090;17.216;2023-04-30T02:07:02;100418.78;;;7.40;82.53
79136;BME280;68533;51.090;17.216;2023-04-30T02:09:33;100423.31;;;7.25;82.53
79136;BME280;68533;51.090;17.216;2023-04-30T02:12:20;100412.00;;;7.11;83.36
79136;BME280;68533;51.090;17.216;2023-04-30T02:15:15;100416.25;;;6.97;84.16
79136;BME280;68533;51.090;17.216;2023-04-30T02:18:07;100418.66;;;6.88;85.07
79136;BME280;68533;51.090;17.216;2023-04-30T02:20:44;100416.44;;;6.85;84.20
79136;BME280;68533;51.090;17.216;2023-04-30T02:23:40;100428.75;;;6.88;83.80
79136;BME280;68533;51.090;17.216;2023-04-30T02:26:34;100423.06;;;6.68;85.51
79136;BME280;68533;51.090;17.216;2023-04-30T02:29:20;100429.59;;;6.61;86.36
79136;BME280;68533;51.090;17.216;2023-04-30T02:32:17;100439.91;;;6.54;86.39
79136;BME280;68533;51.090;17.216;2023-04-30T02:35:05;100432.09;;;6.41;86.37
79136;BME280;68533;51.090;17.216;2023-04-30T02:38:14;100427.88;;;6.29;86.63
79136;BME280;68533;51.090;17.216;2023-04-30T02:40:45;100429.25;;;6.31;86.67
79136;BME280;68533;51.090;17.216;2023-04-30T02:43:12;100427.56;;;6.25;87.77
79136;BME280;68533;51.090;17.216;2023-04-30T02:45:38;100440.38;;;6.24;87.17
79136;BME280;68533;51.090;17.216;2023-04-30T02:48:07;100441.41;;;6.18;87.86
79136;BME280;68533;51.090;17.216;2023-04-30T02:50:51;100436.38;;;6.10;88.09
79136;BME280;68533;51.090;17.216;2023-04-30T02:53:24;100439.94;;;6.11;87.99
79136;BME280;68533;51.090;17.216;2023-04-30T02:55:50;100446.19;;;6.06;88.02
79136;BME280;68533;51.090;17.216;2023-04-30T02:58:17;100447.50;;;6.04;88.71
79136;BME280;68533;51.090;17.216;2023-04-30T03:01:04;100449.16;;;6.05;88.81
79136;BME280;68533;51.090;17.216;2023-04-30T03:03:31;100449.09;;;6.00;88.99
79136;BME280;68533;51.090;17.216;2023-04-30T03:06:03;100453.72;;;5.99;88.70
79136;BME280;68533;51.090;17.216;2023-04-30T03:08:35;100448.50;;;5.98;88.60
79136;BME280;68533;51.090;17.216;2023-04-30T03:11:03;100457.72;;;5.92;88.99
79136;BME280;68533;51.090;17.216;2023-04-30T03:13:30;100460.13;;;5.88;89.52
79136;BME280;68533;51.090;17.216;2023-04-30T03:16:09;100456.56;;;5.88;89.15
79136;BME280;68533;51.090;17.216;2023-04-30T03:18:37;100472.94;;;5.88;89.41
79136;BME280;68533;51.090;17.216;2023-04-30T03:21:03;100476.72;;;5.86;88.99
79136;BME280;68533;51.090;17.216;2023-04-30T03:23:31;100476.97;;;5.85;89.19
79136;BME280;68533;51.090;17.216;2023-04-30T03:25:57;100469.22;;;5.77;89.17
79136;BME280;68533;51.090;17.216;2023-04-30T03:32:43;100479.75;;;5.68;89.32
79136;BME280;68533;51.090;17.216;2023-04-30T03:35:34;100483.34;;;5.74;89.01
79136;BME280;68533;51.090;17.216;2023-04-30T03:38:39;100483.19;;;5.64;89.21
79136;BME280;68533;51.090;17.216;2023-04-30T03:41:05;100489.41;;;5.59;89.03
79136;BME280;68533;51.090;17.216;2023-04-30T03:46:19;100491.38;;;5.64;88.77
79136;BME280;68533;51.090;17.216;2023-04-30T03:49:07;100492.47;;;5.63;88.36
79136;BME280;68533;51.090;17.216;2023-04-30T03:51:45;100497.66;;;5.64;88.27
79136;BME280;68533;51.090;17.216;2023-04-30T03:57:17;100491.53;;;5.74;87.24
79136;BME280;68533;51.090;17.216;2023-04-30T04:00:18;100508.16;;;5.72;87.42
79136;BME280;68533;51.090;17.216;2023-04-30T04:03:34;100509.88;;;5.78;86.87
79136;BME280;68533;51.090;17.216;2023-04-30T04:06:33;100523.03;;;5.81;86.78
79136;BME280;68533;51.090;17.216;2023-04-30T04:09:01;100529.38;;;5.87;86.77
79136;BME280;68533;51.090;17.216;2023-04-30T04:12:07;100532.56;;;5.96;86.84
79136;BME280;68533;51.090;17.216;2023-04-30T04:18:02;100536.84;;;6.30;84.76
79136;BME280;68533;51.090;17.216;2023-04-30T04:21:04;100549.25;;;6.81;82.31
79136;BME280;68533;51.090;17.216;2023-04-30T04:23:46;100545.63;;;7.03;81.55
79136;BME280;68533;51.090;17.216;2023-04-30T04:26:41;100547.78;;;7.27;80.01
79136;BME280;68533;51.090;17.216;2023-04-30T04:32:40;100548.59;;;7.55;79.03
79136;BME280;68533;51.090;17.216;2023-04-30T04:35:32;100565.28;;;7.58;78.31
79136;BME280;68533;51.090;17.216;2023-04-30T04:37:58;100560.03;;;7.52;78.13
79136;BME280;68533;51.090;17.216;2023-04-30T04:40:27;100567.81;;;7.65;77.20
79136;BME280;68533;51.090;17.216;2023-04-30T04:42:56;100561.50;;;7.64;77.58
79136;BME280;68533;51.090;17.216;2023-04-30T04:45:22;100560.53;;;7.75;77.72
79136;BME280;68533;51.090;17.216;2023-04-30T04:47:58;100558.88;;;7.74;77.70
79136;BME280;68533;51.090;17.216;2023-04-30T04:51:05;100572.44;;;7.96;77.24
79136;BME280;68533;51.090;17.216;2023-04-30T04:53:58;100578.59;;;8.13;75.38
79136;BME280;68533;51.090;17.216;2023-04-30T04:56:44;100576.13;;;8.17;75.74
79136;BME280;68533;51.090;17.216;2023-04-30T04:59:47;100585.75;;;8.25;74.73
79136;BME280;68533;51.090;17.216;2023-04-30T05:03:18;100590.09;;;8.57;74.68
79136;BME280;68533;51.090;17.216;2023-04-30T05:05:48;100589.75;;;8.44;74.17
79136;BME280;68533;51.090;17.216;2023-04-30T05:08:17;100593.19;;;8.76;72.84
79136;BME280;68533;51.090;17.216;2023-04-30T05:13:59;100605.47;;;8.59;72.27
79136;BME280;68533;51.090;17.216;2023-04-30T05:16:49;100613.53;;;8.85;74.09
79136;BME280;68533;51.090;17.216;2023-04-30T05:19:18;100612.75;;;8.95;71.63
79136;BME280;68533;51.090;17.216;2023-04-30T05:22:17;100621.66;;;9.38;70.61
79136;BME280;68533;51.090;17.216;2023-04-30T05:29:34;100621.94;;;9.56;71.46
79136;BME280;68533;51.090;17.216;2023-04-30T05:32:47;100623.34;;;9.69;71.13
79136;BME280;68533;51.090;17.216;2023-04-30T05:35:45;100631.53;;;9.33;69.17
79136;BME280;68533;51.090;17.216;2023-04-30T05:38:55;100634.03;;;9.65;70.38
79136;BME280;68533;51.090;17.216;2023-04-30T05:45:09;100633.50;;;9.89;67.49
79136;BME280;68533;51.090;17.216;2023-04-30T05:48:44;100643.13;;;10.42;67.53
79136;BME280;68533;51.090;17.216;2023-04-30T05:51:49;100638.63;;;10.76;66.77
79136;BME280;68533;51.090;17.216;2023-04-30T05:54:18;100643.00;;;10.82;65.54
79136;BME280;68533;51.090;17.216;2023-04-30T05:57:16;100641.16;;;10.58;65.53
79136;BME280;68533;51.090;17.216;2023-04-30T06:08:27;100651.16;;;11.62;62.51
79136;BME280;68533;51.090;17.216;2023-04-30T06:23:00;100668.25;;;12.61;59.42
79136;BME280;68533;51.090;17.216;2023-04-30T06:25:55;100671.84;;;12.32;58.66
79136;BME280;68533;51.090;17.216;2023-04-30T06:36:08;100681.03;;;13.28;56.36
79136;BME280;68533;51.090;17.216;2023-04-30T06:39:01;100678.91;;;13.63;56.95
79136;BME280;68533;51.090;17.216;2023-04-30T06:42:16;100671.41;;;13.44;55.21
79136;BME280;68533;51.090;17.216;2023-04-30T06:45:41;100677.31;;;13.56;54.43
79136;BME280;68533;51.090;17.216;2023-04-30T06:48:31;100671.88;;;14.40;53.86
79136;BME280;68533;51.090;17.216;2023-04-30T06:51:12;100670.63;;;14.92;52.59
79136;BME280;68533;51.090;17.216;2023-04-30T06:53:53;100679.34;;;14.99;49.99
79136;BME280;68533;51.090;17.216;2023-04-30T06:56:31;100688.34;;;14.77;51.65
79136;BME280;68533;51.090;17.216;2023-04-30T06:59:23;100689.19;;;15.05;51.88
79136;BME280;68533;51.090;17.216;2023-04-30T07:02:24;100689.59;;;14.07;54.79
79136;BME280;68533;51.090;17.216;2023-04-30T07:05:10;100688.34;;;14.64;52.67
79136;BME280;68533;51.090;17.216;2023-04-30T07:08:09;100695.94;;;14.58;51.94
79136;BME280;68533;51.090;17.216;2023-04-30T07:13:51;100707.38;;;15.39;48.77
79136;BME280;68533;51.090;17.216;2023-04-30T07:16:20;100702.00;;;15.42;49.38
79136;BME280;68533;51.090;17.216;2023-04-30T07:18:56;100706.81;;;15.78;48.64
79136;BME280;68533;51.090;17.216;2023-04-30T07:21:26;100704.88;;;15.65;50.00
79136;BME280;68533;51.090;17.216;2023-04-30T07:23:53;100713.59;;;15.72;48.32
79136;BME280;68533;51.090;17.216;2023-04-30T07:33:19;100708.94;;;16.17;47.79
79136;BME280;68533;51.090;17.216;2023-04-30T07:36:38;100704.47;;;15.44;48.39
79136;BME280;68533;51.090;17.216;2023-04-30T07:39:37;100716.56;;;16.11;49.07
79136;BME280;68533;51.090;17.216;2023-04-30T07:42:29;100716.00;;;16.23;49.38
79136;BME280;68533;51.090;17.216;2023-04-30T07:45:15;100719.84;;;16.58;48.32
79136;BME280;68533;51.090;17.216;2023-04-30T07:47:42;100723.59;;;15.18;47.57
79136;BME280;68533;51.090;17.216;2023-04-30T07:50:09;100718.31;;;14.24;49.81
79136;BME280;68533;51.090;17.216;2023-04-30T07:52:37;100722.25;;;14.56;49.98
79136;BME280;68533;51.090;17.216;2023-04-30T07:55:05;100729.75;;;15.70;47.79
79136;BME280;68533;51.090;17.216;2023-04-30T07:57:32;100732.56;;;15.78;46.45
79136;BME280;68533;51.090;17.216;2023-04-30T07:59:58;100735.09;;;16.02;47.63
79136;BME280;68533;51.090;17.216;2023-04-30T08:02:24;100733.53;;;17.07;44.13
79136;BME280;68533;51.090;17.216;2023-04-30T08:04:50;100742.47;;;16.07;45.56
79136;BME280;68533;51.090;17.216;2023-04-30T08:07:16;100741.91;;;15.82;48.30
79136;BME280;68533;51.090;17.216;2023-04-30T08:09:42;100735.09;;;16.91;43.60
79136;BME280;68533;51.090;17.216;2023-04-30T08:12:12;100741.88;;;17.07;45.06
79136;BME280;68533;51.090;17.216;2023-04-30T08:14:38;100746.06;;;17.36;44.54
79136;BME280;68533;51.090;17.216;2023-04-30T08:17:04;100748.38;;;16.72;43.04
79136;BME280;68533;51.090;17.216;2023-04-30T08:19:30;100741.78;;;16.23;44.08
79136;BME280;68533;51.090;17.216;2023-04-30T08:22:00;100744.94;;;17.37;44.87
79136;BME280;68533;51.090;17.216;2023-04-30T08:24:26;100732.66;;;15.87;45.84
79136;BME280;68533;51.090;17.216;2023-04-30T08:26:53;100740.59;;;16.83;44.75
79136;BME280;68533;51.090;17.216;2023-04-30T08:29:19;100738.06;;;17.34;44.67
79136;BME280;68533;51.090;17.216;2023-04-30T08:31:48;100737.53;;;17.24;45.28
79136;BME280;68533;51.090;17.216;2023-04-30T08:34:16;100738.41;;;17.98;41.29
79136;BME280;68533;51.090;17.216;2023-04-30T08:36:43;100738.00;;;17.17;42.81
79136;BME280;68533;51.090;17.216;2023-04-30T08:39:09;100741.47;;;17.71;44.01
79136;BME280;68533;51.090;17.216;2023-04-30T08:41:38;100742.59;;;16.02;44.39
79136;BME280;68533;51.090;17.216;2023-04-30T08:44:04;100732.91;;;16.80;43.85
79136;BME280;68533;51.090;17.216;2023-04-30T08:46:34;100734.44;;;16.41;43.87
79136;BME280;68533;51.090;17.216;2023-04-30T08:49:07;100734.72;;;17.15;41.06
79136;BME280;68533;51.090;17.216;2023-04-30T08:51:39;100750.69;;;18.14;40.29
79136;BME280;68533;51.090;17.216;2023-04-30T08:54:11;100744.34;;;17.57;41.09
79136;BME280;68533;51.090;17.216;2023-04-30T08:56:38;100739.22;;;17.90;39.11
79136;BME280;68533;51.090;17.216;2023-04-30T08:59:06;100744.78;;;17.90;40.00
79136;BME280;68533;51.090;17.216;2023-04-30T09:01:34;100746.78;;;15.63;43.80
79136;BME280;68533;51.090;17.216;2023-04-30T09:04:05;100749.47;;;17.24;42.90
79136;BME280;68533;51.090;17.216;2023-04-30T09:06:31;100747.22;;;17.26;41.05
79136;BME280;68533;51.090;17.216;2023-04-30T09:09:08;100745.59;;;16.50;44.45
79136;BME280;68533;51.090;17.216;2023-04-30T09:11:35;100751.44;;;14.81;45.44
79136;BME280;68533;51.090;17.216;2023-04-30T09:14:02;100752.06;;;14.08;47.24
79136;BME280;68533;51.090;17.216;2023-04-30T09:16:30;100744.41;;;14.37;46.27
79136;BME280;68533;51.090;17.216;2023-04-30T09:19:21;100750.94;;;16.24;43.04
79136;BME280;68533;51.090;17.216;2023-04-30T09:21:48;100761.81;;;16.79;40.62
79136;BME280;68533;51.090;17.216;2023-04-30T09:24:13;100758.16;;;16.69;41.19
79136;BME280;68533;51.090;17.216;2023-04-30T09:26:42;100773.91;;;17.84;36.94
79136;BME280;68533;51.090;17.216;2023-04-30T09:29:08;100764.94;;;18.30;34.67
79136;BME280;68533;51.090;17.216;2023-04-30T09:31:36;100770.66;;;17.99;36.54
79136;BME280;68533;51.090;17.216;2023-04-30T09:34:05;100767.88;;;18.25;35.71
79136;BME280;68533;51.090;17.216;2023-04-30T09:36:32;100766.56;;;18.14;36.48
79136;BME280;68533;51.090;17.216;2023-04-30T09:39:09;100774.44;;;18.81;35.47
79136;BME280;68533;51.090;17.216;2023-04-30T09:41:46;100769.31;;;18.83;36.75
79136;BME280;68533;51.090;17.216;2023-04-30T09:44:28;100764.56;;;19.47;37.76
79136;BME280;68533;51.090;17.216;2023-04-30T09:46:56;100769.53;;;19.33;34.77
79136;BME280;68533;51.090;17.216;2023-04-30T09:49:25;100769.41;;;20.09;33.99
79136;BME280;68533;51.090;17.216;2023-04-30T09:51:54;100758.72;;;18.42;36.98
79136;BME280;68533;51.090;17.216;2023-04-30T09:54:25;100766.59;;;18.57;37.10
79136;BME280;68533;51.090;17.216;2023-04-30T09:56:53;100753.16;;;18.42;36.96
79136;BME280;68533;51.090;17.216;2023-04-30T10:02:00;100750.94;;;16.91;40.40
79136;BME280;68533;51.090;17.216;2023-04-30T10:04:29;100759.78;;;17.24;40.64
79136;BME280;68533;51.090;17.216;2023-04-30T10:06:57;100758.88;;;18.63;35.99
79136;BME280;68533;51.090;17.216;2023-04-30T10:09:29;100748.88;;;18.61;33.36
79136;BME280;68533;51.090;17.216;2023-04-30T10:12:04;100763.31;;;18.29;36.08
79136;BME280;68533;51.090;17.216;2023-04-30T10:14:34;100751.44;;;19.39;37.43
79136;BME280;68533;51.090;17.216;2023-04-30T10:17:12;100753.69;;;19.54;33.17
79136;BME280;68533;51.090;17.216;2023-04-30T10:19:45;100747.44;;;19.57;32.60
79136;BME280;68533;51.090;17.216;2023-04-30T10:22:11;100739.81;;;16.91;36.59
79136;BME280;68533;51.090;17.216;2023-04-30T10:24:38;100750.00;;;18.86;35.40
79136;BME280;68533;51.090;17.216;2023-04-30T10:27:04;100752.13;;;19.95;33.37
79136;BME280;68533;51.090;17.216;2023-04-30T10:29:30;100753.88;;;19.49;33.72
79136;BME280;68533;51.090;17.216;2023-04-30T10:31:56;100753.19;;;19.06;34.34
79136;BME280;68533;51.090;17.216;2023-04-30T10:34:59;100750.31;;;18.76;34.30
79136;BME280;68533;51.090;17.216;2023-04-30T10:37:49;100744.25;;;17.71;33.30
79136;BME280;68533;51.090;17.216;2023-04-30T10:40:18;100747.84;;;18.83;36.54
79136;BME280;68533;51.090;17.216;2023-04-30T10:42:46;100749.75;;;19.55;33.50
79136;BME280;68533;51.090;17.216;2023-04-30T10:45:15;100741.81;;;19.87;34.61
79136;BME280;68533;51.090;17.216;2023-04-30T10:47:42;100741.94;;;19.99;32.15
79136;BME280;68533;51.090;17.216;2023-04-30T10:50:10;100743.13;;;20.72;32.62
79136;BME280;68533;51.090;17.216;2023-04-30T10:52:37;100733.47;;;19.19;33.73
79136;BME280;68533;51.090;17.216;2023-04-30T10:55:04;100736.72;;;19.30;31.13
79136;BME280;68533;51.090;17.216;2023-04-30T10:57:39;100732.78;;;19.31;31.53
79136;BME280;68533;51.090;17.216;2023-04-30T11:02:42;100728.94;;;19.73;35.71
79136;BME280;68533;51.090;17.216;2023-04-30T11:05:14;100718.50;;;19.70;34.12
79136;BME280;68533;51.090;17.216;2023-04-30T11:07:51;100727.19;;;18.93;31.93
79136;BME280;68533;51.090;17.216;2023-04-30T11:10:23;100735.66;;;19.43;31.69
79136;BME280;68533;51.090;17.216;2023-04-30T11:12:51;100731.22;;;20.01;29.06
79136;BME280;68533;51.090;17.216;2023-04-30T11:15:33;100731.38;;;19.84;33.44
79136;BME280;68533;51.090;17.216;2023-04-30T11:18:01;100733.88;;;20.18;32.06
79136;BME280;68533;51.090;17.216;2023-04-30T11:20:27;100725.97;;;19.78;31.91
79136;BME280;68533;51.090;17.216;2023-04-30T11:23:10;100729.44;;;19.08;33.29
79136;BME280;68533;51.090;17.216;2023-04-30T11:25:44;100735.97;;;19.80;30.51
79136;BME280;68533;51.090;17.216;2023-04-30T11:28:17;100726.25;;;19.86;30.84
79136;BME280;68533;51.090;17.216;2023-04-30T11:31:04;100731.75;;;18.97;31.89
79136;BME280;68533;51.090;17.216;2023-04-30T11:33:32;100730.66;;;19.28;31.79
79136;BME280;68533;51.090;17.216;2023-04-30T11:36:01;100732.31;;;19.88;31.27
79136;BME280;68533;51.090;17.216;2023-04-30T11:38:29;100728.91;;;20.24;30.33
79136;BME280;68533;51.090;17.216;2023-04-30T11:41:00;100728.41;;;20.01;29.30
79136;BME280;68533;51.090;17.216;2023-04-30T11:43:28;100725.00;;;19.74;30.59
79136;BME280;68533;51.090;17.216;2023-04-30T11:48:38;100726.50;;;19.72;30.96
79136;BME280;68533;51.090;17.216;2023-04-30T11:51:18;100730.16;;;18.88;30.63
79136;BME280;68533;51.090;17.216;2023-04-30T11:53:50;100730.19;;;18.71;31.08
79136;BME280;68533;51.090;17.216;2023-04-30T11:56:23;100734.69;;;19.48;30.32
79136;BME280;68533;51.090;17.216;2023-04-30T11:58:51;100729.53;;;20.29;31.70
79136;BME280;68533;51.090;17.216;2023-04-30T12:01:19;100730.66;;;19.87;30.96
79136;BME280;68533;51.090;17.216;2023-04-30T12:03:48;100726.00;;;19.03;32.24
79136;BME280;68533;51.090;17.216;2023-04-30T12:06:25;100733.03;;;19.55;29.99
79136;BME280;68533;51.090;17.216;2023-04-30T12:08:53;100729.66;;;19.70;30.88
79136;BME280;68533;51.090;17.216;2023-04-30T12:11:29;100735.84;;;19.97;28.83
79136;BME280;68533;51.090;17.216;2023-04-30T12:14:02;100727.47;;;19.97;29.44
79136;BME280;68533;51.090;17.216;2023-04-30T12:19:06;100725.59;;;19.59;29.84
79136;BME280;68533;51.090;17.216;2023-04-30T12:21:34;100732.47;;;19.62;30.45
79136;BME280;68533;51.090;17.216;2023-04-30T12:24:04;100728.25;;;19.85;29.71
79136;BME280;68533;51.090;17.216;2023-04-30T12:26:38;100730.88;;;20.23;30.36
79136;BME280;68533;51.090;17.216;2023-04-30T12:29:10;100728.00;;;20.32;29.08
79136;BME280;68533;51.090;17.216;2023-04-30T12:31:37;100726.94;;;19.83;27.46
79136;BME280;68533;51.090;17.216;2023-04-30T12:34:08;100720.19;;;18.70;29.76
79136;BME280;68533;51.090;17.216;2023-04-30T12:36:34;100722.56;;;19.35;29.17
79136;BME280;68533;51.090;17.216;2023-04-30T12:39:10;100716.75;;;18.55;27.75
79136;BME280;68533;51.090;17.216;2023-04-30T12:41:39;100716.56;;;19.24;28.35
79136;BME280;68533;51.090;17.216;2023-04-30T12:44:24;100709.84;;;19.63;26.97
79136;BME280;68533;51.090;17.216;2023-04-30T12:46:55;100709.91;;;19.96;25.09
79136;BME280;68533;51.090;17.216;2023-04-30T12:51:49;100714.41;;;19.89;27.16
79136;BME280;68533;51.090;17.216;2023-04-30T12:54:26;100714.72;;;18.90;25.98
79136;BME280;68533;51.090;17.216;2023-04-30T12:59:32;100718.34;;;19.29;26.87
79136;BME280;68533;51.090;17.216;2023-04-30T13:02:10;100707.97;;;18.19;27.56
79136;BME280;68533;51.090;17.216;2023-04-30T13:04:39;100712.34;;;18.72;28.20
79136;BME280;68533;51.090;17.216;2023-04-30T13:07:19;100700.25;;;18.33;26.41
79136;BME280;68533;51.090;17.216;2023-04-30T13:09:47;100698.78;;;18.27;27.90
79136;BME280;68533;51.090;17.216;2023-04-30T13:12:13;100707.19;;;18.91;29.50
79136;BME280;68533;51.090;17.216;2023-04-30T13:14:40;100707.06;;;18.87;28.22
79136;BME280;68533;51.090;17.216;2023-04-30T13:17:06;100704.13;;;18.75;27.37
79136;BME280;68533;51.090;17.216;2023-04-30T13:19:34;100702.41;;;17.93;26.82
79136;BME280;68533;51.090;17.216;2023-04-30T13:22:00;100707.81;;;18.15;28.89
79136;BME280;68533;51.090;17.216;2023-04-30T13:24:27;100706.13;;;18.40;26.46
79136;BME280;68533;51.090;17.216;2023-04-30T13:26:53;100702.19;;;18.67;27.28
79136;BME280;68533;51.090;17.216;2023-04-30T13:29:19;100698.59;;;19.05;27.71
79136;BME280;68533;51.090;17.216;2023-04-30T13:31:48;100697.59;;;18.54;26.79
79136;BME280;68533;51.090;17.216;2023-04-30T13:34:14;100697.31;;;19.40;26.49
79136;BME280;68533;51.090;17.216;2023-04-30T13:36:44;100694.31;;;19.16;25.73
79136;BME280;68533;51.090;17.216;2023-04-30T13:39:17;100697.41;;;18.76;28.51
79136;BME280;68533;51.090;17.216;2023-04-30T13:41:42;100693.41;;;18.94;25.60
79136;BME280;68533;51.090;17.216;2023-04-30T13:44:09;100702.56;;;19.04;26.26
79136;BME280;68533;51.090;17.216;2023-04-30T13:46:35;100690.41;;;18.44;28.18
79136;BME280;68533;51.090;17.216;2023-04-30T13:49:02;100681.38;;;18.65;29.36
79136;BME280;68533;51.090;17.216;2023-04-30T13:51:30;100690.94;;;18.20;28.59
79136;BME280;68533;51.090;17.216;2023-04-30T13:53:57;100696.19;;;18.05;27.30
79136;BME280;68533;51.090;17.216;2023-04-30T13:56:23;100693.88;;;18.07;28.51
79136;BME280;68533;51.090;17.216;2023-04-30T13:58:50;100689.78;;;18.13;28.33
79136;BME280;68533;51.090;17.216;2023-04-30T14:01:16;100690.72;;;18.51;27.04
79136;BME280;68533;51.090;17.216;2023-04-30T14:03:45;100684.38;;;18.16;27.12
79136;BME280;68533;51.090;17.216;2023-04-30T14:06:14;100685.44;;;17.46;26.63
79136;BME280;68533;51.090;17.216;2023-04-30T14:08:41;100685.69;;;18.19;29.93
79136;BME280;68533;51.090;17.216;2023-04-30T14:11:10;100687.13;;;18.51;26.80
79136;BME280;68533;51.090;17.216;2023-04-30T14:13:38;100677.00;;;18.20;31.01
79136;BME280;68533;51.090;17.216;2023-04-30T14:16:07;100672.59;;;17.94;28.05
79136;BME280;68533;51.090;17.216;2023-04-30T14:18:33;100679.81;;;18.20;30.52
79136;BME280;68533;51.090;17.216;2023-04-30T14:20:59;100679.75;;;18.38;28.37
79136;BME280;68533;51.090;17.216;2023-04-30T14:23:25;100672.03;;;17.57;28.09
79136;BME280;68533;51.090;17.216;2023-04-30T14:25:53;100666.53;;;18.09;31.03
79136;BME280;68533;51.090;17.216;2023-04-30T14:28:20;100671.56;;;18.41;28.53
79136;BME280;68533;51.090;17.216;2023-04-30T14:30:46;100675.72;;;17.92;29.34
79136;BME280;68533;51.090;17.216;2023-04-30T14:33:12;100670.00;;;18.06;28.60
79136;BME280;68533;51.090;17.216;2023-04-30T14:35:40;100665.38;;;18.01;29.05
79136;BME280;68533;51.090;17.216;2023-04-30T14:38:07;100672.00;;;17.31;29.73
79136;BME280;68533;51.090;17.216;2023-04-30T14:40:36;100664.66;;;17.35;30.27
79136;BME280;68533;51.090;17.216;2023-04-30T14:43:04;100658.97;;;17.58;28.85
79136;BME280;68533;51.090;17.216;2023-04-30T14:45:33;100664.81;;;16.91;29.92
79136;BME280;68533;51.090;17.216;2023-04-30T14:47:59;100660.81;;;17.14;30.32
79136;BME280;68533;51.090;17.216;2023-04-30T14:50:29;100667.84;;;17.03;30.92
79136;BME280;68533;51.090;17.216;2023-04-30T14:53:02;100666.22;;;17.11;30.89
79136;BME280;68533;51.090;17.216;2023-04-30T14:55:28;100666.31;;;17.54;30.30
79136;BME280;68533;51.090;17.216;2023-04-30T14:57:59;100666.94;;;17.42;29.37
79136;BME280;68533;51.090;17.216;2023-04-30T15:00:25;100671.19;;;17.31;31.02
79136;BME280;68533;51.090;17.216;2023-04-30T15:02:52;100670.66;;;17.12;30.67
79136;BME280;68533;51.090;17.216;2023-04-30T15:05:18;100659.03;;;17.10;32.06
79136;BME280;68533;51.090;17.216;2023-04-30T15:07:44;100668.41;;;17.31;31.90
79136;BME280;68533;51.090;17.216;2023-04-30T15:10:15;100654.97;;;17.16;30.89
79136;BME280;68533;51.090;17.216;2023-04-30T15:12:41;100661.09;;;16.95;31.57
79136;BME280;68533;51.090;17.216;2023-04-30T15:15:08;100664.91;;;17.08;31.75
79136;BME280;68533;51.090;17.216;2023-04-30T15:17:36;100661.56;;;16.89;30.05
79136;BME280;68533;51.090;17.216;2023-04-30T15:20:03;100651.22;;;17.29;29.66
79136;BME280;68533;51.090;17.216;2023-04-30T15:22:31;100655.44;;;17.09;29.15
79136;BME280;68533;51.090;17.216;2023-04-30T15:24:58;100659.84;;;16.48;31.57
79136;BME280;68533;51.090;17.216;2023-04-30T15:27:26;100658.00;;;16.13;30.53
79136;BME280;68533;51.090;17.216;2023-04-30T15:29:54;100658.59;;;16.32;30.09
79136;BME280;68533;51.090;17.216;2023-04-30T15:32:20;100654.63;;;16.24;31.03
79136;BME280;68533;51.090;17.216;2023-04-30T15:34:46;100663.03;;;16.33;31.61
79136;BME280;68533;51.090;17.216;2023-04-30T15:37:12;100658.03;;;16.44;31.90
79136;BME280;68533;51.090;17.216;2023-04-30T15:39:38;100657.72;;;16.23;32.31
79136;BME280;68533;51.090;17.216;2023-04-30T15:42:06;100661.19;;;15.84;34.94
79136;BME280;68533;51.090;17.216;2023-04-30T15:44:31;100661.84;;;15.67;33.19
79136;BME280;68533;51.090;17.216;2023-04-30T15:47:01;100659.69;;;16.00;33.51